Airport Information

KHIO - Portland Hillsboro Airport

KHIO 160753Z AUTO 00000KT 10SM CLR 00/M02 A2978 RMK AO2 SLP086 T00001022 400671028


  • General Information

  • Coordinates: N 45°32'25"/ W 122°56'59"
  • Location: N/A
  • Surveyed Elevation: 204 MSL

Operations

Flow Name Active Runways Conditions

Green background denotes normal operations.


Common Frequencies

Callsign Frequency Position Name

More at the Document Center


Charts

Name Description Cycle
BERNI THREE Page 1 1901
CANBY TWO Page 1 | Page 2 1901
CHISM FOUR Page 1 1901
FARMINGTON SEVEN Page 1 | Page 2 1901
SCAPO SEVEN Page 1 | Page 2 1901
Name Description Cycle
HELNS SIX Page 1 1901
OCITY TWO Page 1 1901